Time;durP1;ratioP1;P1;durP2;ratioP2;P2;SDS_P1;SDS_P2;PMS_P1;PMS_P2;Temp;Humidity;BMP_temperature;BMP_pressure;BME280_temperature;BME280_humidity;BME280_pressure;Samples;Min_cycle;Max_cycle;Signal;HPM_P1;HPM_P2
2022/01/12 00:00:54;;;;;;;42.07;25.43;;;1.10;99.90;;;;;;640543;222;26547;-78
2022/01/12 00:03:21;;;;;;;47.87;26.93;;;1.00;99.90;;;;;;640603;224;27528;-79
2022/01/12 00:05:49;;;;;;;47.87;25.57;;;0.90;99.90;;;;;;640548;224;26738;-79
2022/01/12 00:08:16;;;;;;;48.10;26.23;;;0.90;99.90;;;;;;640518;224;26856;-79
2022/01/12 00:10:44;;;;;;;45.10;24.90;;;0.70;99.90;;;;;;640549;224;26540;-78
2022/01/12 00:13:10;;;;;;;45.47;25.10;;;0.90;99.90;;;;;;640604;224;26783;-79
2022/01/12 00:15:38;;;;;;;43.40;24.50;;;1.10;99.90;;;;;;640575;224;26527;-79
2022/01/12 00:18:05;;;;;;;50.83;26.93;;;1.20;99.90;;;;;;640556;224;26782;-79
2022/01/12 00:20:32;;;;;;;46.47;24.03;;;1.30;99.90;;;;;;640527;221;26576;-79
2022/01/12 00:22:59;;;;;;;45.47;26.23;;;1.00;99.90;;;;;;640605;224;26742;-78
2022/01/12 00:25:33;;;;;;;43.30;24.67;;;1.10;99.90;;;;;;640566;224;26516;-79
2022/01/12 00:35:33;;;;;;;47.07;23.87;;;1.10;99.90;;;;;;641356;223;26860;-79
2022/01/12 00:38:00;;;;;;;42.33;25.63;;;1.30;99.90;;;;;;641250;223;26568;-78
2022/01/12 00:40:27;;;;;;;40.47;24.67;;;1.20;99.90;;;;;;641625;223;26825;-78
2022/01/12 00:42:54;;;;;;;47.23;26.17;;;1.30;99.90;;;;;;641722;223;26485;-78
2022/01/12 00:45:22;;;;;;;39.90;23.67;;;1.40;99.90;;;;;;641674;224;26763;-78
2022/01/12 00:47:49;;;;;;;42.73;24.07;;;1.50;99.90;;;;;;640936;223;26576;-78
2022/01/12 00:50:16;;;;;;;43.63;25.27;;;1.60;99.90;;;;;;640682;224;27363;-77
2022/01/12 00:52:43;;;;;;;47.40;24.83;;;1.70;99.90;;;;;;640754;219;26561;-78
2022/01/12 00:55:10;;;;;;;45.07;23.87;;;1.50;99.90;;;;;;640735;224;26795;-78
2022/01/12 00:57:40;;;;;;;42.77;25.20;;;1.40;99.90;;;;;;640788;224;26560;-78
2022/01/12 01:00:07;;;;;;;50.47;25.93;;;1.00;99.90;;;;;;640549;224;26595;-78
2022/01/12 01:02:33;;;;;;;48.40;25.03;;;1.00;99.90;;;;;;640760;224;26569;-78
2022/01/12 01:05:01;;;;;;;52.27;26.50;;;0.90;99.90;;;;;;640635;223;27271;-78
2022/01/12 01:07:28;;;;;;;45.30;24.03;;;0.90;99.90;;;;;;640478;224;26505;-78
2022/01/12 01:10:04;;;;;;;43.07;24.43;;;1.00;99.90;;;;;;640478;224;26866;-78
2022/01/12 01:12:23;;;;;;;44.10;25.13;;;1.00;99.90;;;;;;639403;224;26568;-77
2022/01/12 01:15:03;;;;;;;46.90;25.60;;;1.00;99.90;;;;;;640353;224;26810;-78
2022/01/12 01:27:39;;;;;;;43.20;23.47;;;1.70;99.90;;;;;;640341;224;26476;-78
2022/01/12 01:30:07;;;;;;;40.73;22.37;;;1.50;99.90;;;;;;640371;224;26571;-78
2022/01/12 01:32:35;;;;;;;44.33;23.20;;;1.50;99.90;;;;;;640404;224;26529;-77
2022/01/12 01:35:01;;;;;;;43.27;24.20;;;1.50;99.90;;;;;;640431;224;26580;-77
2022/01/12 01:37:29;;;;;;;39.73;22.30;;;1.60;99.90;;;;;;640419;224;26804;-77
2022/01/12 01:39:56;;;;;;;36.53;21.67;;;1.50;99.90;;;;;;641062;222;26773;-78
2022/01/12 01:42:31;;;;;;;40.90;22.13;;;1.40;99.90;;;;;;642122;223;26760;-78
2022/01/12 01:55:11;;;;;;;37.33;21.30;;;1.70;99.90;;;;;;641167;224;26529;-78
2022/01/12 01:57:38;;;;;;;40.77;21.73;;;1.50;99.90;;;;;;641133;223;26524;-78
2022/01/12 02:00:06;;;;;;;41.83;21.57;;;1.30;99.90;;;;;;640790;219;26821;-77
2022/01/12 02:02:34;;;;;;;38.90;21.67;;;1.20;99.90;;;;;;640868;223;26929;-78
2022/01/12 02:05:01;;;;;;;43.93;22.37;;;1.20;99.90;;;;;;640840;223;26559;-78
2022/01/12 02:07:28;;;;;;;41.97;22.73;;;1.20;99.90;;;;;;640846;224;26813;-78
2022/01/12 02:09:55;;;;;;;41.83;22.40;;;1.40;99.90;;;;;;640751;222;26588;-79
2022/01/12 02:12:24;;;;;;;41.50;21.87;;;1.50;99.90;;;;;;640797;223;26524;-78
2022/01/12 02:14:52;;;;;;;39.60;22.13;;;1.50;99.90;;;;;;641121;223;26834;-79
2022/01/12 02:17:22;;;;;;;40.70;21.40;;;1.60;99.90;;;;;;640488;224;26575;-78
2022/01/12 02:40:45;;;;;;;40.90;20.67;;;1.40;99.90;;;;;;640594;224;26790;-75
2022/01/12 02:43:17;;;;;;;39.70;19.83;;;1.30;99.90;;;;;;640525;224;26512;-76
2022/01/12 02:50:55;;;;;;;38.83;18.67;;;1.60;99.90;;;;;;640487;222;26564;-75
2022/01/12 02:55:46;;;;;;;38.60;19.20;;;1.30;99.90;;;;;;641719;224;26580;-76
2022/01/12 02:58:14;;;;;;;39.63;19.27;;;1.30;99.90;;;;;;641509;223;26748;-76
2022/01/12 03:01:02;;;;;;;37.30;19.70;;;1.20;99.90;;;;;;641365;221;26594;-75
2022/01/12 03:03:11;;;;;;;42.33;20.57;;;1.30;99.90;;;;;;639258;224;26532;-75
2022/01/12 03:05:46;;;;;;;39.97;20.37;;;1.20;99.90;;;;;;640982;224;26509;-75
2022/01/12 03:08:11;;;;;;;41.43;20.67;;;1.10;99.90;;;;;;640271;224;26525;-75
2022/01/12 03:10:30;;;;;;;37.07;19.60;;;1.30;99.90;;;;;;640235;224;26592;-75
2022/01/12 03:12:58;;;;;;;38.93;19.70;;;1.20;99.90;;;;;;640867;223;26779;-75
2022/01/12 03:15:26;;;;;;;41.40;20.60;;;1.60;99.90;;;;;;640898;224;26520;-76
2022/01/12 03:17:54;;;;;;;36.97;20.33;;;1.60;99.90;;;;;;640872;224;26588;-76
2022/01/12 03:20:22;;;;;;;38.13;19.57;;;1.40;99.90;;;;;;640747;223;26592;-75
2022/01/12 03:22:50;;;;;;;34.50;18.77;;;1.40;99.90;;;;;;640806;223;26815;-75
2022/01/12 03:25:17;;;;;;;36.07;18.30;;;1.20;99.90;;;;;;640876;223;26600;-75
2022/01/12 03:27:44;;;;;;;39.83;22.17;;;1.20;99.90;;;;;;640648;224;26858;-75
2022/01/12 03:30:12;;;;;;;37.07;18.87;;;1.20;99.90;;;;;;640533;221;26581;-76
2022/01/12 03:32:45;;;;;;;37.27;19.77;;;1.40;99.90;;;;;;640412;224;26525;-76
2022/01/12 03:35:11;;;;;;;35.07;18.97;;;2.00;99.90;;;;;;639868;224;26504;-75
2022/01/12 03:37:42;;;;;;;42.57;21.43;;;1.90;99.90;;;;;;640070;224;26518;-76
2022/01/12 03:40:07;;;;;;;43.83;21.13;;;1.90;99.90;;;;;;640225;224;26759;-76
2022/01/12 03:42:34;;;;;;;43.10;21.13;;;2.00;99.90;;;;;;640602;224;26520;-76
2022/01/12 03:45:01;;;;;;;40.80;21.17;;;2.00;99.90;;;;;;640630;224;26532;-76
2022/01/12 03:47:28;;;;;;;41.50;20.53;;;1.80;99.90;;;;;;640554;224;27068;-76
2022/01/12 03:49:56;;;;;;;41.37;21.73;;;1.70;99.90;;;;;;640555;221;26547;-76
2022/01/12 03:52:23;;;;;;;46.10;21.73;;;1.60;99.90;;;;;;640492;219;27177;-76
2022/01/12 03:54:50;;;;;;;43.43;22.77;;;1.60;99.90;;;;;;640460;224;26535;-76
2022/01/12 03:57:17;;;;;;;42.63;20.63;;;1.60;99.90;;;;;;640571;224;27196;-76
2022/01/12 03:59:44;;;;;;;46.53;22.50;;;1.60;99.90;;;;;;640584;224;26520;-76
2022/01/12 04:02:12;;;;;;;42.23;21.40;;;1.80;99.90;;;;;;640513;224;26766;-76
2022/01/12 04:05:03;;;;;;;45.60;21.70;;;1.80;99.90;;;;;;642326;222;26513;-76
2022/01/12 04:09:39;;;;;;;40.67;21.60;;;2.10;99.90;;;;;;641466;223;26865;-76
2022/01/12 04:12:07;;;;;;;43.57;20.70;;;1.80;99.90;;;;;;641404;223;26569;-76
2022/01/12 04:14:34;;;;;;;38.50;19.70;;;1.80;99.90;;;;;;641182;224;26529;-76
2022/01/12 04:17:01;;;;;;;39.40;19.03;;;1.50;99.90;;;;;;641262;223;26802;-76
2022/01/12 04:19:29;;;;;;;36.77;18.97;;;1.30;99.90;;;;;;641131;224;26517;-76
2022/01/12 04:22:07;;;;;;;38.90;20.00;;;1.10;99.90;;;;;;640955;223;26682;-76
2022/01/12 04:24:25;;;;;;;39.20;19.97;;;1.10;99.90;;;;;;640028;224;26580;-76
2022/01/12 04:26:53;;;;;;;42.53;20.27;;;1.40;99.90;;;;;;640881;224;26520;-76
2022/01/12 04:29:20;;;;;;;42.30;19.93;;;1.40;99.90;;;;;;640713;223;26586;-77
2022/01/12 04:31:48;;;;;;;38.00;20.03;;;1.80;99.90;;;;;;640691;221;26576;-76
2022/01/12 04:34:15;;;;;;;40.07;20.77;;;2.20;99.90;;;;;;640718;224;27233;-76
2022/01/12 04:36:42;;;;;;;44.03;22.13;;;2.10;99.90;;;;;;640657;224;26576;-76
2022/01/12 04:39:09;;;;;;;46.03;22.30;;;2.00;99.90;;;;;;640608;224;26894;-77
2022/01/12 04:41:36;;;;;;;50.47;22.63;;;1.80;99.90;;;;;;640455;224;26793;-76
2022/01/12 04:44:06;;;;;;;40.90;21.13;;;1.80;99.90;;;;;;640358;224;26810;-76
2022/01/12 04:46:49;;;;;;;44.73;21.80;;;2.00;99.90;;;;;;640094;224;26588;-76
2022/01/12 04:51:33;;;;;;;43.63;21.63;;;2.10;99.90;;;;;;640388;222;26604;-76
2022/01/12 04:54:01;;;;;;;43.30;21.30;;;1.90;99.90;;;;;;640473;224;26521;-75
2022/01/12 04:56:30;;;;;;;41.03;21.20;;;1.70;99.90;;;;;;640392;219;26569;-77
2022/01/12 04:58:57;;;;;;;43.80;21.33;;;2.00;99.90;;;;;;640118;224;26581;-76
2022/01/12 05:01:27;;;;;;;41.50;20.90;;;2.10;99.90;;;;;;640275;224;26603;-76
2022/01/12 05:06:47;;;;;;;38.70;19.43;;;2.00;99.90;;;;;;632116;224;26540;-76
2022/01/12 05:09:14;;;;;;;36.90;20.23;;;1.70;99.90;;;;;;639717;224;26559;-76
2022/01/12 05:14:08;;;;;;;36.07;19.23;;;1.60;99.90;;;;;;641107;222;26707;-76
2022/01/12 05:16:35;;;;;;;36.87;20.03;;;1.70;99.90;;;;;;642829;223;26547;-76
2022/01/12 05:19:05;;;;;;;37.27;19.23;;;1.80;99.90;;;;;;642177;223;26758;-76
2022/01/12 05:21:29;;;;;;;39.43;20.23;;;1.80;99.90;;;;;;641783;224;26593;-76
2022/01/12 05:24:00;;;;;;;40.33;21.47;;;1.80;99.90;;;;;;641844;223;26760;-76
2022/01/12 05:26:24;;;;;;;38.70;19.20;;;2.00;99.90;;;;;;641358;224;26489;-76
2022/01/12 05:28:51;;;;;;;40.50;20.10;;;2.00;99.90;;;;;;641620;223;26773;-76
2022/01/12 05:31:18;;;;;;;40.60;20.17;;;2.10;99.90;;;;;;641642;221;26526;-76
2022/01/12 05:33:48;;;;;;;41.10;20.27;;;2.20;99.90;;;;;;641429;223;26529;-76
2022/01/12 05:36:15;;;;;;;39.13;19.53;;;1.90;99.90;;;;;;641148;224;26538;-76
2022/01/12 05:38:40;;;;;;;43.80;21.20;;;1.90;99.90;;;;;;641138;224;26529;-76
2022/01/12 05:41:07;;;;;;;40.27;20.50;;;2.00;99.90;;;;;;641301;223;26576;-76
2022/01/12 05:43:37;;;;;;;43.97;20.87;;;1.70;99.90;;;;;;641325;223;26549;-76
2022/01/12 05:46:09;;;;;;;42.73;21.27;;;1.50;99.90;;;;;;641127;224;26526;-76
2022/01/12 05:51:02;;;;;;;42.17;21.10;;;1.30;99.90;;;;;;641190;219;26572;-76
2022/01/12 05:53:30;;;;;;;42.87;21.30;;;1.40;99.90;;;;;;640467;224;26524;-76
2022/01/12 05:55:57;;;;;;;39.77;20.60;;;1.40;99.90;;;;;;640317;224;26524;-76
2022/01/12 05:58:25;;;;;;;42.47;20.83;;;1.40;99.90;;;;;;640273;224;26532;-76
2022/01/12 06:00:52;;;;;;;42.70;21.00;;;1.40;99.90;;;;;;640224;222;26829;-76
2022/01/12 06:03:19;;;;;;;40.57;19.33;;;1.60;99.90;;;;;;640345;224;26524;-76
2022/01/12 06:05:46;;;;;;;40.30;21.27;;;1.60;99.90;;;;;;640457;224;26815;-76
2022/01/12 06:08:13;;;;;;;37.53;19.30;;;1.70;99.90;;;;;;640405;224;26520;-76
2022/01/12 06:10:41;;;;;;;38.37;19.83;;;1.10;99.90;;;;;;640339;221;26862;-76
2022/01/12 06:13:09;;;;;;;40.50;19.40;;;1.10;99.90;;;;;;640287;224;27232;-76
2022/01/12 06:15:36;;;;;;;40.20;19.33;;;1.20;99.90;;;;;;640350;224;26560;-76
2022/01/12 06:18:03;;;;;;;37.67;19.73;;;1.40;99.90;;;;;;640303;224;27241;-76
2022/01/12 06:20:30;;;;;;;40.60;19.67;;;1.30;99.90;;;;;;640300;224;26592;-77
2022/01/12 06:22:57;;;;;;;35.40;19.23;;;1.40;99.90;;;;;;640403;224;26511;-76
2022/01/12 06:25:25;;;;;;;44.80;20.87;;;1.40;99.90;;;;;;640377;224;26520;-76
2022/01/12 06:27:56;;;;;;;37.80;19.60;;;1.30;99.90;;;;;;642108;222;26816;-76
2022/01/12 06:32:52;;;;;;;38.83;19.13;;;1.20;99.90;;;;;;641311;223;26581;-76
2022/01/12 06:35:19;;;;;;;42.97;21.70;;;0.90;99.90;;;;;;641125;224;26863;-76
2022/01/12 06:37:46;;;;;;;41.77;19.77;;;1.00;99.90;;;;;;640761;223;26578;-76
2022/01/12 06:40:13;;;;;;;40.30;19.10;;;1.10;99.90;;;;;;640948;221;26886;-75
2022/01/12 06:42:41;;;;;;;38.20;19.63;;;1.00;99.90;;;;;;641109;223;26514;-75
2022/01/12 06:45:09;;;;;;;36.60;18.43;;;0.90;99.90;;;;;;640814;224;26562;-76
2022/01/12 06:47:37;;;;;;;42.83;19.77;;;0.90;99.90;;;;;;640655;223;26817;-76
2022/01/12 06:50:04;;;;;;;40.13;21.10;;;1.00;99.90;;;;;;640733;223;26588;-75
2022/01/12 06:52:32;;;;;;;43.17;22.07;;;1.20;99.90;;;;;;640775;223;26849;-75
2022/01/12 06:55:00;;;;;;;43.10;22.07;;;1.20;99.90;;;;;;640694;223;26566;-76
2022/01/12 06:57:26;;;;;;;49.00;22.73;;;1.30;99.90;;;;;;640685;224;27230;-75
2022/01/12 06:59:53;;;;;;;42.60;20.10;;;1.30;99.90;;;;;;640634;223;26600;-75
2022/01/12 07:02:20;;;;;;;44.93;22.03;;;1.10;99.90;;;;;;640552;224;26796;-76
2022/01/12 07:04:48;;;;;;;46.63;21.33;;;1.10;99.90;;;;;;640317;224;26563;-75
2022/01/12 07:07:15;;;;;;;44.93;22.87;;;1.20;99.90;;;;;;640298;224;26905;-75
2022/01/12 07:09:42;;;;;;;49.93;23.03;;;1.30;99.90;;;;;;640270;224;26532;-75
2022/01/12 07:12:10;;;;;;;46.83;20.63;;;1.30;99.90;;;;;;640400;224;26935;-76
2022/01/12 07:14:37;;;;;;;43.33;20.07;;;1.30;99.90;;;;;;640357;224;26576;-75
2022/01/12 07:17:05;;;;;;;44.50;21.60;;;1.30;99.90;;;;;;640480;223;26519;-75
2022/01/12 07:19:31;;;;;;;42.20;20.87;;;1.40;99.90;;;;;;640207;224;26756;-75
2022/01/12 07:21:59;;;;;;;47.00;21.23;;;1.50;99.90;;;;;;640370;224;26612;-75
2022/01/12 07:24:26;;;;;;;42.10;21.00;;;1.50;99.90;;;;;;640285;224;27224;-76
2022/01/12 07:26:53;;;;;;;48.57;22.87;;;1.60;99.90;;;;;;640290;224;26587;-75
2022/01/12 07:29:21;;;;;;;47.27;22.03;;;1.50;99.90;;;;;;640208;224;26835;-76
2022/01/12 07:31:48;;;;;;;47.20;21.97;;;1.50;99.90;;;;;;640363;222;26822;-76
2022/01/12 07:34:16;;;;;;;48.47;22.77;;;1.60;99.90;;;;;;640357;224;26516;-76
2022/01/12 07:36:43;;;;;;;52.83;23.67;;;1.90;99.90;;;;;;640247;224;26995;-76
2022/01/12 07:39:11;;;;;;;48.47;22.93;;;2.10;99.90;;;;;;641762;222;26575;-75
2022/01/12 07:41:39;;;;;;;46.90;21.63;;;2.20;99.90;;;;;;641544;221;26639;-76
2022/01/12 07:44:07;;;;;;;48.00;22.93;;;2.20;99.90;;;;;;641289;223;26554;-76
2022/01/12 07:46:35;;;;;;;51.53;23.53;;;2.30;99.90;;;;;;641092;224;26561;-75
2022/01/12 07:49:02;;;;;;;47.17;22.53;;;2.30;99.90;;;;;;640994;224;26542;-75
2022/01/12 07:51:29;;;;;;;47.77;22.20;;;2.40;99.90;;;;;;641032;219;26592;-76
2022/01/12 07:53:56;;;;;;;43.73;22.20;;;2.60;99.90;;;;;;640984;223;26801;-80
2022/01/12 07:56:23;;;;;;;48.63;22.67;;;2.60;99.90;;;;;;640888;224;26571;-76
2022/01/12 07:58:51;;;;;;;48.87;20.27;;;2.50;99.90;;;;;;640572;224;26917;-76
2022/01/12 08:01:18;;;;;;;49.27;21.97;;;2.70;99.90;;;;;;640218;221;26595;-75
2022/01/12 08:03:45;;;;;;;49.53;22.20;;;2.80;99.90;;;;;;639702;218;26795;-76
2022/01/12 08:06:12;;;;;;;40.07;19.93;;;2.80;99.90;;;;;;639745;222;26554;-75
2022/01/12 08:08:39;;;;;;;43.00;20.77;;;3.20;99.90;;;;;;641786;222;26795;-75
2022/01/12 08:11:07;;;;;;;44.30;21.17;;;3.50;99.90;;;;;;642790;222;26590;-75
2022/01/12 08:13:34;;;;;;;43.17;21.70;;;3.60;99.90;;;;;;639470;222;26914;-75
2022/01/12 08:16:02;;;;;;;43.07;22.17;;;3.60;99.90;;;;;;637927;224;26580;-75
2022/01/12 08:18:30;;;;;;;44.73;21.47;;;3.70;99.90;;;;;;643056;222;26581;-75
2022/01/12 08:20:58;;;;;;;43.87;20.73;;;3.90;99.90;;;;;;639617;222;26601;-75
2022/01/12 08:23:26;;;;;;;51.30;25.67;;;3.90;99.90;;;;;;638312;224;27146;-75
2022/01/12 08:25:53;;;;;;;44.77;22.17;;;3.80;99.90;;;;;;639939;222;26568;-75
2022/01/12 08:28:20;;;;;;;55.97;26.23;;;3.90;99.90;;;;;;643871;221;26856;-81
2022/01/12 08:30:47;;;;;;;46.73;22.20;;;4.00;99.90;;;;;;640198;222;26583;-82
2022/01/12 08:33:15;;;;;;;48.27;23.07;;;4.00;99.90;;;;;;642839;221;26843;-79
2022/01/12 08:35:42;;;;;;;41.20;20.70;;;4.10;99.90;;;;;;639359;221;26585;-79
2022/01/12 08:38:10;;;;;;;40.00;20.37;;;4.30;99.90;;;;;;642424;221;26589;-79
2022/01/12 08:40:38;;;;;;;43.67;19.67;;;4.30;99.90;;;;;;640443;221;26857;-79
2022/01/12 08:43:05;;;;;;;41.00;20.60;;;3.90;99.90;;;;;;640798;221;26616;-80
2022/01/12 08:45:32;;;;;;;44.03;19.80;;;3.60;99.90;;;;;;641805;221;27338;-79
2022/01/12 08:47:59;;;;;;;36.73;20.03;;;3.40;99.90;;;;;;638413;222;26577;-79
2022/01/12 08:50:26;;;;;;;40.87;20.27;;;3.40;99.90;;;;;;640135;221;26841;-80
2022/01/12 08:52:55;;;;;;;37.03;18.53;;;3.60;99.90;;;;;;642472;221;26639;-79
2022/01/12 08:55:22;;;;;;;40.20;21.10;;;4.10;99.90;;;;;;637576;225;26574;-79
2022/01/12 08:57:51;;;;;;;38.97;21.73;;;4.20;99.90;;;;;;637644;225;26582;-79
2022/01/12 09:00:18;;;;;;;36.37;18.50;;;4.50;99.90;;;;;;640249;224;26617;-78
2022/01/12 09:02:46;;;;;;;36.33;20.17;;;4.80;99.90;;;;;;638200;224;26556;-79
2022/01/12 09:05:14;;;;;;;42.33;20.13;;;4.80;99.90;;;;;;642606;222;26569;-78
2022/01/12 09:07:40;;;;;;;37.20;19.53;;;5.00;99.90;;;;;;641966;217;26529;-79
2022/01/12 09:10:08;;;;;;;42.37;21.87;;;4.90;99.90;;;;;;638774;222;26612;-79
2022/01/12 09:12:36;;;;;;;38.63;19.80;;;4.90;99.90;;;;;;643765;222;27234;-78
2022/01/12 09:15:04;;;;;;;43.97;20.83;;;4.60;99.90;;;;;;636940;225;26575;-79
2022/01/12 09:17:31;;;;;;;38.97;20.07;;;4.40;99.90;;;;;;637616;224;27027;-78
2022/01/12 09:19:59;;;;;;;41.60;19.13;;;4.60;99.90;;;;;;637168;221;26597;-79
2022/01/12 09:22:26;;;;;;;44.83;20.30;;;4.70;99.90;;;;;;637138;224;26811;-80
2022/01/12 09:24:53;;;;;;;38.90;19.17;;;4.90;99.90;;;;;;637115;224;26563;-79
2022/01/12 09:27:20;;;;;;;38.77;20.20;;;4.90;99.90;;;;;;637058;225;26802;-79
2022/01/12 09:29:47;;;;;;;33.77;18.83;;;4.90;99.90;;;;;;637016;226;26788;-80
2022/01/12 09:32:15;;;;;;;40.80;19.47;;;4.80;99.90;;;;;;637034;226;26833;-77
2022/01/12 09:34:42;;;;;;;41.10;20.87;;;4.90;99.90;;;;;;636984;224;26604;-80
2022/01/12 09:37:09;;;;;;;37.80;19.73;;;5.10;99.90;;;;;;637106;224;26778;-78
2022/01/12 09:39:36;;;;;;;43.07;21.27;;;5.50;99.90;;;;;;637088;224;26563;-79
2022/01/12 09:42:04;;;;;;;40.60;20.47;;;5.20;99.90;;;;;;637119;219;26616;-78
2022/01/12 09:44:32;;;;;;;40.77;20.97;;;4.30;99.90;;;;;;637100;225;26578;-78
2022/01/12 09:47:00;;;;;;;36.67;20.07;;;4.40;99.90;;;;;;637198;224;26598;-78
2022/01/12 09:49:28;;;;;;;39.67;18.70;;;4.20;99.90;;;;;;637271;224;26545;-78
2022/01/12 09:51:57;;;;;;;40.23;20.63;;;4.50;99.90;;;;;;637257;219;26601;-78
2022/01/12 09:54:24;;;;;;;40.63;20.13;;;4.50;99.90;;;;;;637175;225;26560;-78
2022/01/12 09:56:51;;;;;;;38.37;20.10;;;4.80;99.90;;;;;;637204;224;26557;-78
2022/01/12 09:59:18;;;;;;;46.17;21.27;;;5.20;99.90;;;;;;637082;224;26546;-78
2022/01/12 10:01:45;;;;;;;41.63;20.37;;;5.40;99.90;;;;;;638223;223;26577;-78
2022/01/12 10:04:14;;;;;;;44.20;21.30;;;5.50;99.90;;;;;;638605;225;26822;-78
2022/01/12 10:06:40;;;;;;;37.33;19.90;;;5.30;99.90;;;;;;638237;225;26525;-78
2022/01/12 10:09:07;;;;;;;41.20;21.03;;;5.30;99.90;;;;;;638151;224;26857;-79
2022/01/12 10:11:34;;;;;;;41.87;19.93;;;5.30;99.90;;;;;;637865;219;26535;-79
2022/01/12 10:14:02;;;;;;;36.33;19.17;;;5.60;99.90;;;;;;637891;224;26769;-79
2022/01/12 10:16:28;;;;;;;38.33;19.13;;;6.10;99.90;;;;;;637787;225;26523;-78
2022/01/12 10:18:57;;;;;;;40.03;20.07;;;6.00;99.90;;;;;;637659;224;26776;-79
2022/01/12 10:21:30;;;;;;;46.33;20.43;;;5.70;99.90;;;;;;637254;224;26604;-79
2022/01/12 10:24:00;;;;;;;39.90;20.27;;;5.20;99.90;;;;;;637291;225;26600;-78
2022/01/12 10:26:28;;;;;;;37.17;20.50;;;5.20;99.90;;;;;;637291;225;26585;-79
2022/01/12 10:29:01;;;;;;;38.70;19.07;;;5.50;99.90;;;;;;637295;224;26812;-78
2022/01/12 10:31:28;;;;;;;39.60;18.43;;;5.60;99.90;;;;;;637359;224;26796;-79
2022/01/12 10:33:56;;;;;;;33.20;19.13;;;6.20;99.90;;;;;;637359;224;26781;-78
2022/01/12 10:36:23;;;;;;;32.47;17.70;;;6.80;99.90;;;;;;636741;225;26560;-78
2022/01/12 10:38:50;;;;;;;29.90;17.80;;;6.80;99.90;;;;;;637007;224;26824;-78
2022/01/12 10:41:18;;;;;;;33.73;18.77;;;6.80;99.90;;;;;;637022;224;26589;-79
2022/01/12 10:43:45;;;;;;;32.83;17.53;;;6.80;99.90;;;;;;637099;224;27183;-79
2022/01/12 10:46:15;;;;;;;31.07;17.17;;;6.50;99.90;;;;;;637143;226;26564;-79
2022/01/12 10:48:43;;;;;;;35.83;16.73;;;5.90;99.90;;;;;;638987;222;26614;-79
2022/01/12 10:51:11;;;;;;;34.30;18.43;;;5.50;99.90;;;;;;637640;222;26839;-81
2022/01/12 10:53:37;;;;;;;30.30;16.57;;;5.30;99.90;;;;;;640253;222;26564;-81
2022/01/12 10:56:06;;;;;;;32.73;17.30;;;6.10;99.90;;;;;;639719;222;26746;-80
2022/01/12 10:58:33;;;;;;;31.77;17.83;;;6.00;99.90;;;;;;645468;222;26582;-80
2022/01/12 11:01:00;;;;;;;28.53;17.57;;;6.00;99.90;;;;;;643470;221;26586;-80
2022/01/12 11:03:28;;;;;;;32.00;17.80;;;6.00;99.90;;;;;;641036;222;26566;-80
2022/01/12 11:05:55;;;;;;;33.97;17.60;;;5.70;99.90;;;;;;637123;224;26795;-80
2022/01/12 11:08:24;;;;;;;32.83;17.47;;;5.50;99.90;;;;;;638788;221;26616;-79
2022/01/12 11:10:51;;;;;;;34.57;18.77;;;5.50;99.90;;;;;;637177;224;27259;-81
2022/01/12 11:13:18;;;;;;;32.57;18.10;;;5.10;99.90;;;;;;640393;222;26804;-80
2022/01/12 11:15:46;;;;;;;31.60;17.67;;;5.30;99.90;;;;;;639714;221;26941;-81
2022/01/12 11:18:13;;;;;;;36.13;18.73;;;5.20;99.90;;;;;;641516;223;26564;-81
2022/01/12 11:20:40;;;;;;;32.90;18.57;;;5.00;99.90;;;;;;639918;223;26834;-80
2022/01/12 11:23:08;;;;;;;34.30;20.53;;;4.80;99.90;;;;;;643653;222;26518;-81
2022/01/12 11:25:36;;;;;;;33.00;18.43;;;4.50;99.90;;;;;;639461;222;26523;-81
2022/01/12 11:28:18;;;;;;;35.67;19.63;;;4.60;99.90;;;;;;637584;224;26540;-81
2022/01/12 11:31:04;;;;;;;38.77;20.13;;;5.00;99.90;;;;;;637653;224;26575;-81
2022/01/12 11:33:34;;;;;;;39.57;19.90;;;5.40;99.90;;;;;;638075;223;26565;-81
2022/01/12 11:36:02;;;;;;;33.77;19.30;;;5.60;99.90;;;;;;640020;224;26585;-81
2022/01/12 11:38:30;;;;;;;39.60;20.83;;;5.40;99.90;;;;;;638398;224;26656;-82
2022/01/12 11:41:14;;;;;;;40.83;21.67;;;4.90;99.90;;;;;;638997;222;26599;-81
2022/01/12 11:43:45;;;;;;;37.40;22.73;;;4.90;99.90;;;;;;636419;222;26845;-82
2022/01/12 11:46:12;;;;;;;41.07;21.40;;;5.00;99.90;;;;;;639383;222;26844;-81
2022/01/12 11:48:43;;;;;;;41.57;22.77;;;5.00;99.90;;;;;;642893;222;26825;-83
2022/01/12 11:51:10;;;;;;;41.20;23.13;;;5.00;99.90;;;;;;636816;221;26621;-81
2022/01/12 11:53:43;;;;;;;45.50;24.47;;;5.00;99.90;;;;;;639626;224;27193;-81
2022/01/12 11:56:11;;;;;;;40.17;22.07;;;4.90;99.90;;;;;;642561;221;26530;-81
2022/01/12 11:58:49;;;;;;;41.33;24.37;;;5.00;99.90;;;;;;646670;221;26746;-82
2022/01/12 12:01:16;;;;;;;43.60;25.57;;;5.00;99.90;;;;;;641007;224;26512;-81
2022/01/12 12:03:43;;;;;;;49.13;24.53;;;4.70;99.90;;;;;;638083;224;27179;-81
2022/01/12 12:06:15;;;;;;;53.03;27.13;;;4.80;99.90;;;;;;636134;223;26519;-81
2022/01/12 12:08:58;;;;;;;47.43;25.43;;;4.40;99.90;;;;;;637565;224;26524;-81
2022/01/12 12:11:25;;;;;;;50.90;26.63;;;4.10;99.90;;;;;;640054;224;26520;-84
2022/01/12 12:13:53;;;;;;;54.23;27.47;;;4.10;99.90;;;;;;638765;222;26537;-83
2022/01/12 12:16:21;;;;;;;56.47;27.33;;;4.10;99.90;;;;;;645781;217;26551;-81
2022/01/12 12:18:48;;;;;;;49.67;24.97;;;4.10;99.90;;;;;;639375;224;26468;-81
2022/01/12 12:21:15;;;;;;;51.30;26.73;;;4.30;99.90;;;;;;643778;221;26911;-81
2022/01/12 12:23:42;;;;;;;58.47;27.90;;;4.70;99.90;;;;;;640108;222;26726;-80
2022/01/12 12:26:09;;;;;;;51.37;28.03;;;5.00;99.90;;;;;;639044;218;26885;-80
2022/01/12 12:28:36;;;;;;;59.40;29.20;;;4.80;99.90;;;;;;637859;223;26594;-81
2022/01/12 12:31:04;;;;;;;53.90;27.67;;;4.40;99.90;;;;;;637476;225;26826;-81
2022/01/12 12:33:31;;;;;;;57.63;28.60;;;4.10;99.90;;;;;;637514;223;26559;-84
2022/01/12 12:35:58;;;;;;;59.87;27.27;;;4.10;99.90;;;;;;637437;225;26878;-79
2022/01/12 12:38:25;;;;;;;62.63;30.73;;;4.20;99.90;;;;;;637456;225;26595;-79
2022/01/12 12:40:55;;;;;;;59.30;27.87;;;4.30;99.90;;;;;;637432;224;26858;-79
2022/01/12 12:43:24;;;;;;;54.30;26.40;;;4.20;99.90;;;;;;637327;225;26862;-80
2022/01/12 12:45:49;;;;;;;63.20;27.97;;;4.40;99.90;;;;;;636845;225;27025;-79
2022/01/12 12:48:16;;;;;;;54.63;27.27;;;4.00;99.90;;;;;;637346;225;26803;-79
2022/01/12 12:50:44;;;;;;;57.80;27.37;;;4.00;99.90;;;;;;637811;224;26520;-79
2022/01/12 12:53:12;;;;;;;58.13;28.13;;;4.00;99.90;;;;;;637823;225;26493;-80
2022/01/12 12:55:40;;;;;;;62.53;27.60;;;4.00;99.90;;;;;;637890;224;26488;-80
2022/01/12 12:58:08;;;;;;;57.77;27.97;;;4.00;99.90;;;;;;637841;224;26551;-80
2022/01/12 13:00:35;;;;;;;60.10;28.07;;;4.00;99.90;;;;;;637695;224;26594;-80
2022/01/12 13:03:03;;;;;;;66.23;28.07;;;3.90;99.90;;;;;;637435;225;26555;-79
2022/01/12 13:05:30;;;;;;;62.70;27.80;;;3.80;99.90;;;;;;637402;225;26808;-79
2022/01/12 13:07:57;;;;;;;64.93;28.80;;;3.80;99.90;;;;;;637535;225;26842;-79
2022/01/12 13:10:25;;;;;;;65.17;29.40;;;3.80;99.90;;;;;;637201;224;26577;-80
2022/01/12 13:12:53;;;;;;;68.37;27.73;;;3.90;99.90;;;;;;637144;225;26815;-80
2022/01/12 13:15:25;;;;;;;69.67;30.60;;;4.10;99.90;;;;;;636974;224;26810;-80
2022/01/12 13:18:00;;;;;;;65.20;28.37;;;4.20;99.90;;;;;;637145;226;26560;-80
2022/01/12 13:23:09;;;;;;;72.93;27.17;;;4.30;99.90;;;;;;637072;224;26577;-80
2022/01/12 13:25:36;;;;;;;63.17;26.13;;;4.30;99.90;;;;;;637087;224;26801;-80
2022/01/12 13:28:03;;;;;;;73.40;28.37;;;4.10;99.90;;;;;;637069;224;26571;-80
2022/01/12 13:30:30;;;;;;;74.27;28.00;;;4.20;99.90;;;;;;637017;220;26854;-80
2022/01/12 13:32:58;;;;;;;63.30;28.50;;;4.20;99.90;;;;;;637071;224;26806;-80
2022/01/12 13:35:27;;;;;;;72.90;29.00;;;4.20;99.90;;;;;;637290;219;26564;-80
2022/01/12 13:37:56;;;;;;;71.20;29.30;;;4.20;99.90;;;;;;638731;222;26816;-80
2022/01/12 13:40:23;;;;;;;68.90;30.07;;;4.30;99.90;;;;;;638290;221;26845;-80
2022/01/12 13:42:51;;;;;;;74.57;29.77;;;4.50;99.90;;;;;;642705;221;26560;-80
2022/01/12 13:45:20;;;;;;;77.27;30.17;;;4.10;99.90;;;;;;641583;222;26564;-80
2022/01/12 13:47:49;;;;;;;76.43;28.73;;;4.10;99.90;;;;;;639171;222;27089;-80
2022/01/12 13:50:14;;;;;;;80.00;30.33;;;4.00;99.90;;;;;;640563;221;26589;-80
2022/01/12 13:52:41;;;;;;;81.07;31.57;;;3.80;99.90;;;;;;638406;222;27023;-80